Time;durP1;ratioP1;P1;durP2;ratioP2;P2;SDS_P1;SDS_P2;PMS_P1;PMS_P2;Temp;Humidity;BMP_temperature;BMP_pressure;BME280_temperature;BME280_humidity;BME280_pressure;Samples;Min_cycle;Max_cycle;Signal;HPM_P1;HPM_P2
2023/05/19 00:00:57;;;;;;;16.67;7.15;;;9.80;99.90;;;;;;5028600;28;20520;-72
2023/05/19 00:03:24;;;;;;;14.88;6.85;;;9.70;99.90;;;;;;5031203;28;20120;-73
2023/05/19 00:05:52;;;;;;;15.90;7.40;;;9.70;99.90;;;;;;5034586;28;20105;-72
2023/05/19 00:08:19;;;;;;;16.25;7.40;;;9.70;99.90;;;;;;5046727;28;20942;-72
2023/05/19 00:10:45;;;;;;;13.77;6.63;;;9.70;99.90;;;;;;5027025;28;21333;-73
2023/05/19 00:13:11;;;;;;;14.15;7.43;;;9.60;99.90;;;;;;5024892;28;20053;-75
2023/05/19 00:15:37;;;;;;;16.15;7.65;;;9.60;99.90;;;;;;5025726;28;20056;-72
2023/05/19 00:18:02;;;;;;;14.98;7.30;;;9.60;99.90;;;;;;5023269;28;20045;-72
2023/05/19 00:20:28;;;;;;;16.20;7.30;;;9.60;99.90;;;;;;5026588;28;20067;-73
2023/05/19 00:22:54;;;;;;;17.45;7.63;;;9.50;99.90;;;;;;5026006;28;20080;-72
2023/05/19 00:25:20;;;;;;;11.82;7.15;;;9.50;99.90;;;;;;5017041;28;20096;-72
2023/05/19 00:27:45;;;;;;;15.90;6.97;;;9.50;99.90;;;;;;5018355;28;20103;-72
2023/05/19 00:30:11;;;;;;;17.20;7.80;;;9.50;99.90;;;;;;5042149;28;20046;-73
2023/05/19 00:32:37;;;;;;;15.65;7.38;;;9.40;99.90;;;;;;5024666;28;20096;-72
2023/05/19 00:35:03;;;;;;;15.80;8.20;;;9.40;99.90;;;;;;5024014;28;20076;-73
2023/05/19 00:37:29;;;;;;;14.77;8.85;;;9.40;99.90;;;;;;5023224;28;20073;-74
2023/05/19 00:39:54;;;;;;;17.13;8.48;;;9.40;99.90;;;;;;5019344;28;20397;-72
2023/05/19 00:42:20;;;;;;;15.43;7.47;;;9.40;99.90;;;;;;5019282;28;20068;-72
2023/05/19 00:44:46;;;;;;;19.95;8.98;;;9.40;99.90;;;;;;5030518;28;20053;-72
2023/05/19 00:47:11;;;;;;;17.65;8.02;;;9.30;99.90;;;;;;5025346;28;20041;-72
2023/05/19 00:49:37;;;;;;;14.55;7.82;;;9.30;99.90;;;;;;5027865;28;20098;-73
2023/05/19 00:52:05;;;;;;;12.93;7.78;;;9.20;99.90;;;;;;5021940;28;20913;-72
2023/05/19 00:54:32;;;;;;;14.82;7.93;;;9.30;99.90;;;;;;5033090;28;20037;-72
2023/05/19 00:56:59;;;;;;;12.70;7.60;;;9.30;99.90;;;;;;5028462;28;20499;-74
2023/05/19 00:59:25;;;;;;;14.57;7.90;;;9.30;99.90;;;;;;5027647;28;20053;-73
2023/05/19 01:01:51;;;;;;;18.40;8.32;;;9.30;99.90;;;;;;5032421;28;20062;-72
2023/05/19 01:04:19;;;;;;;17.35;8.30;;;9.20;99.90;;;;;;5029886;28;22003;-72
2023/05/19 01:06:47;;;;;;;16.20;8.27;;;9.20;99.90;;;;;;5031202;28;20052;-73
2023/05/19 01:09:12;;;;;;;17.17;8.75;;;9.20;99.90;;;;;;5029801;28;20047;-74
2023/05/19 01:11:38;;;;;;;17.65;8.90;;;9.20;99.90;;;;;;5031102;28;20033;-73
2023/05/19 01:14:04;;;;;;;17.08;9.15;;;9.20;99.90;;;;;;5028575;28;20157;-73
2023/05/19 01:16:38;;;;;;;19.25;9.20;;;9.10;99.90;;;;;;5015479;28;20116;-73
2023/05/19 01:19:26;;;;;;;16.35;8.45;;;9.10;99.90;;;;;;5032132;28;20053;-73
2023/05/19 01:22:11;;;;;;;13.60;8.80;;;9.10;99.90;;;;;;5026555;28;21013;-72
2023/05/19 01:25:10;;;;;;;20.27;8.70;;;9.10;99.90;;;;;;5028485;28;20053;-72
2023/05/19 01:27:50;;;;;;;17.25;8.88;;;9.10;99.90;;;;;;5027187;28;20045;-73
2023/05/19 01:30:22;;;;;;;17.88;9.05;;;9.00;99.90;;;;;;5028219;28;20049;-72
2023/05/19 01:32:50;;;;;;;19.63;9.40;;;9.00;99.90;;;;;;5021158;28;20899;-73
2023/05/19 01:35:16;;;;;;;19.17;9.40;;;9.00;99.90;;;;;;5019620;28;20045;-73
2023/05/19 01:37:44;;;;;;;19.45;9.57;;;9.00;99.90;;;;;;5020261;28;20586;-73
2023/05/19 01:40:10;;;;;;;19.80;9.38;;;9.00;99.90;;;;;;5030653;28;20052;-72
2023/05/19 01:42:38;;;;;;;21.85;9.55;;;9.00;99.90;;;;;;5033253;28;20041;-72
2023/05/19 01:45:09;;;;;;;17.52;9.00;;;9.00;99.90;;;;;;5026180;28;20060;-73
2023/05/19 01:47:39;;;;;;;18.50;8.68;;;8.90;99.90;;;;;;5034542;28;20037;-73
2023/05/19 01:50:05;;;;;;;18.85;9.40;;;9.00;99.90;;;;;;5027953;28;20103;-72
2023/05/19 01:52:31;;;;;;;16.92;9.02;;;8.90;99.90;;;;;;5026451;28;20045;-73
2023/05/19 01:55:04;;;;;;;19.88;9.95;;;8.90;99.90;;;;;;5028165;28;20432;-73
2023/05/19 01:58:05;;;;;;;19.83;8.45;;;8.90;99.90;;;;;;5029138;28;20135;-73
2023/05/19 02:01:02;;;;;;;19.02;11.10;;;8.90;99.90;;;;;;4995102;28;20412;-73
2023/05/19 02:03:41;;;;;;;19.88;9.05;;;8.90;99.90;;;;;;5039810;28;20047;-72
2023/05/19 02:06:21;;;;;;;19.45;9.43;;;8.90;99.90;;;;;;5030024;28;20061;-72
2023/05/19 02:09:01;;;;;;;18.67;8.48;;;8.90;99.90;;;;;;5022371;28;20690;-72
2023/05/19 02:11:42;;;;;;;24.83;9.32;;;8.80;99.90;;;;;;5026654;28;20075;-72
2023/05/19 02:14:15;;;;;;;19.42;9.45;;;8.80;99.90;;;;;;5026966;28;20056;-72
2023/05/19 02:16:45;;;;;;;15.45;8.77;;;8.80;99.90;;;;;;5024140;28;20084;-73
2023/05/19 02:19:25;;;;;;;21.60;10.02;;;8.80;99.90;;;;;;5027669;28;20519;-73
2023/05/19 02:21:51;;;;;;;18.58;8.80;;;8.80;99.90;;;;;;5025704;28;20073;-73
2023/05/19 02:24:17;;;;;;;23.08;9.98;;;8.80;99.90;;;;;;5023350;28;20183;-72
2023/05/19 02:26:42;;;;;;;19.48;9.45;;;8.70;99.90;;;;;;5028495;28;20041;-72
2023/05/19 02:29:08;;;;;;;16.13;10.00;;;8.70;99.90;;;;;;5030791;28;20135;-74
2023/05/19 02:31:34;;;;;;;21.63;12.75;;;8.70;99.90;;;;;;5027169;28;20049;-73
2023/05/19 02:33:59;;;;;;;19.58;10.18;;;8.70;99.90;;;;;;5016639;28;20041;-72
2023/05/19 02:36:25;;;;;;;20.17;10.05;;;8.70;99.90;;;;;;5029795;28;20118;-72
2023/05/19 02:38:51;;;;;;;18.50;9.80;;;8.60;99.90;;;;;;5025017;28;20045;-74
2023/05/19 02:41:16;;;;;;;21.05;9.82;;;8.60;99.90;;;;;;5035062;28;20068;-73
2023/05/19 02:43:42;;;;;;;17.95;9.73;;;8.60;99.90;;;;;;5029378;28;20053;-72
2023/05/19 02:46:08;;;;;;;17.85;9.30;;;8.60;99.90;;;;;;5035901;28;20049;-73
2023/05/19 02:48:33;;;;;;;21.90;9.85;;;8.60;99.90;;;;;;5030764;28;20057;-73
2023/05/19 02:50:59;;;;;;;21.55;12.38;;;8.60;99.90;;;;;;5033200;28;20045;-72
2023/05/19 02:53:25;;;;;;;16.85;9.43;;;8.60;99.90;;;;;;5025255;28;20053;-74
2023/05/19 02:55:50;;;;;;;21.25;10.00;;;8.60;99.90;;;;;;5030387;28;20070;-73
2023/05/19 02:58:17;;;;;;;19.58;9.88;;;8.50;99.90;;;;;;5028978;28;20043;-72
2023/05/19 03:00:44;;;;;;;18.42;9.80;;;8.50;99.90;;;;;;5035594;28;20048;-72
2023/05/19 03:03:10;;;;;;;20.88;13.70;;;8.50;99.90;;;;;;5035005;28;20053;-72
2023/05/19 03:05:35;;;;;;;19.77;10.35;;;8.60;99.90;;;;;;5033248;28;20041;-71
2023/05/19 03:08:01;;;;;;;17.17;9.82;;;8.50;99.90;;;;;;5030661;28;20048;-72
2023/05/19 03:10:27;;;;;;;20.65;13.45;;;8.50;99.90;;;;;;5032388;28;20056;-73
2023/05/19 03:12:52;;;;;;;24.73;10.82;;;8.50;99.90;;;;;;5035564;28;20164;-73
2023/05/19 03:15:19;;;;;;;21.88;9.93;;;8.50;99.90;;;;;;5027515;28;20666;-72
2023/05/19 03:17:45;;;;;;;20.58;10.32;;;8.50;99.90;;;;;;5033678;28;20701;-72
2023/05/19 03:20:11;;;;;;;25.10;11.02;;;8.40;99.90;;;;;;5026520;28;20034;-74
2023/05/19 03:22:36;;;;;;;19.65;10.20;;;8.40;99.90;;;;;;5029832;28;20107;-72
2023/05/19 03:25:03;;;;;;;19.20;10.73;;;8.40;99.90;;;;;;5030934;28;20392;-71
2023/05/19 03:27:28;;;;;;;18.42;10.93;;;8.40;99.90;;;;;;5025881;28;20052;-72
2023/05/19 03:29:54;;;;;;;16.00;10.15;;;8.40;99.90;;;;;;5031248;28;20505;-73
2023/05/19 03:32:20;;;;;;;18.50;10.85;;;8.40;99.90;;;;;;5022885;28;20560;-73
2023/05/19 03:34:45;;;;;;;16.92;9.93;;;8.40;99.90;;;;;;5032205;28;20830;-72
2023/05/19 03:37:11;;;;;;;22.48;11.07;;;8.40;99.90;;;;;;5033007;28;20087;-73
2023/05/19 03:39:37;;;;;;;21.25;10.63;;;8.30;99.90;;;;;;5035325;28;20077;-74
2023/05/19 03:42:03;;;;;;;18.88;10.35;;;8.30;99.90;;;;;;5032794;28;20049;-72
2023/05/19 03:44:31;;;;;;;22.05;11.35;;;8.30;99.90;;;;;;5025004;28;20125;-73
2023/05/19 03:46:57;;;;;;;19.75;11.88;;;8.30;99.90;;;;;;5034510;28;20049;-72
2023/05/19 03:49:23;;;;;;;18.13;10.80;;;8.30;99.90;;;;;;5030632;28;20048;-72
2023/05/19 03:51:48;;;;;;;15.45;10.38;;;8.30;99.90;;;;;;5026599;28;20087;-72
2023/05/19 03:54:14;;;;;;;21.33;13.68;;;8.30;99.90;;;;;;5030130;28;20095;-73
2023/05/19 03:56:42;;;;;;;15.93;10.70;;;8.30;99.90;;;;;;5035999;28;20500;-74
2023/05/19 03:59:09;;;;;;;20.10;10.82;;;8.30;99.90;;;;;;5034213;28;20971;-72
2023/05/19 04:01:35;;;;;;;;;;;8.30;99.90;;;;;;5031923;28;20520;-73
2023/05/19 04:04:01;;;;;;;22.40;11.25;;;8.20;99.90;;;;;;5022785;28;19925;-72
2023/05/19 04:06:27;;;;;;;19.92;14.80;;;8.20;99.90;;;;;;5026331;28;20041;-72
2023/05/19 04:08:53;;;;;;;17.90;10.73;;;8.20;99.90;;;;;;5031892;28;20047;-71
2023/05/19 04:11:18;;;;;;;22.33;11.05;;;8.20;99.90;;;;;;5031963;28;20503;-73
2023/05/19 04:13:44;;;;;;;19.95;11.13;;;8.20;99.90;;;;;;5034510;28;20041;-74
2023/05/19 04:16:16;;;;;;;19.15;10.63;;;8.20;99.90;;;;;;5029357;28;20893;-72
2023/05/19 04:18:44;;;;;;;18.83;11.80;;;8.20;99.90;;;;;;5026707;28;20918;-72
2023/05/19 04:21:09;;;;;;;18.85;12.07;;;8.20;99.90;;;;;;5028098;28;20416;-72
2023/05/19 04:23:35;;;;;;;18.08;11.63;;;8.30;99.90;;;;;;5033563;28;20041;-72
2023/05/19 04:26:02;;;;;;;18.90;11.50;;;8.30;99.90;;;;;;5024230;28;20049;-72
2023/05/19 04:28:28;;;;;;;18.13;11.68;;;8.30;99.90;;;;;;5034583;28;21227;-72
2023/05/19 04:30:57;;;;;;;24.55;13.18;;;8.20;99.90;;;;;;5028803;28;20080;-72
2023/05/19 04:33:23;;;;;;;22.00;11.98;;;8.20;99.90;;;;;;5024424;28;20063;-72
2023/05/19 04:35:49;;;;;;;29.23;16.05;;;8.30;99.90;;;;;;5031805;28;20045;-72
2023/05/19 04:38:17;;;;;;;21.73;12.07;;;8.30;99.90;;;;;;5025199;28;20558;-72
2023/05/19 04:40:43;;;;;;;20.17;10.95;;;8.30;99.90;;;;;;5031912;28;20056;-73
2023/05/19 04:43:11;;;;;;;30.88;11.38;;;8.30;99.90;;;;;;5026548;28;20041;-72
2023/05/19 04:45:37;;;;;;;20.25;11.52;;;8.20;99.90;;;;;;5023823;28;20057;-72
2023/05/19 04:48:02;;;;;;;22.20;11.65;;;8.30;99.90;;;;;;5031587;28;20052;-73
2023/05/19 04:50:29;;;;;;;16.67;12.10;;;8.30;99.90;;;;;;5029396;28;20048;-72
2023/05/19 04:52:57;;;;;;;18.02;12.38;;;8.30;99.90;;;;;;5026887;28;20110;-73
2023/05/19 04:55:23;;;;;;;17.95;12.90;;;8.30;99.90;;;;;;5035920;28;20029;-72
2023/05/19 04:57:48;;;;;;;18.98;11.95;;;8.40;99.90;;;;;;5029882;28;20049;-73
2023/05/19 05:00:15;;;;;;;18.42;12.63;;;8.40;99.90;;;;;;5028345;28;20110;-72
2023/05/19 05:02:41;;;;;;;17.57;12.03;;;8.50;99.90;;;;;;5032276;28;20067;-72
2023/05/19 05:05:08;;;;;;;16.75;11.00;;;8.60;99.90;;;;;;5027626;28;20650;-72
2023/05/19 05:07:34;;;;;;;17.17;11.83;;;8.60;99.90;;;;;;5025245;28;20044;-72
2023/05/19 05:09:59;;;;;;;15.55;10.90;;;8.70;99.90;;;;;;5028825;28;20103;-74
2023/05/19 05:12:25;;;;;;;18.38;11.57;;;8.80;99.90;;;;;;5026067;28;20045;-73
2023/05/19 05:14:51;;;;;;;20.75;11.07;;;8.80;99.90;;;;;;5029462;28;20059;-73
2023/05/19 05:17:17;;;;;;;19.08;11.95;;;9.00;99.90;;;;;;5019224;28;20088;-71
2023/05/19 05:19:43;;;;;;;20.65;11.38;;;9.00;99.90;;;;;;5017903;28;20124;-72
2023/05/19 05:22:09;;;;;;;16.38;10.43;;;9.10;99.90;;;;;;5024476;28;20055;-72
2023/05/19 05:24:35;;;;;;;15.18;9.10;;;9.20;99.90;;;;;;5024382;28;20044;-73
2023/05/19 05:27:00;;;;;;;21.20;10.77;;;9.20;99.90;;;;;;5039420;28;20053;-72
2023/05/19 05:29:26;;;;;;;15.18;10.23;;;9.30;99.90;;;;;;5021269;28;20052;-73
2023/05/19 05:31:52;;;;;;;19.08;10.27;;;9.40;99.90;;;;;;5027038;28;20049;-73
2023/05/19 05:34:17;;;;;;;18.23;10.70;;;9.50;99.90;;;;;;5022569;28;20041;-74
2023/05/19 05:36:43;;;;;;;14.63;9.85;;;9.60;99.90;;;;;;5029350;28;20087;-73
2023/05/19 05:39:08;;;;;;;14.70;10.02;;;9.70;99.90;;;;;;5027095;28;20044;-72
2023/05/19 05:41:34;;;;;;;14.77;10.00;;;9.70;99.90;;;;;;5031445;28;20562;-72
2023/05/19 05:44:01;;;;;;;15.52;10.05;;;9.80;99.90;;;;;;5027672;28;20440;-73
2023/05/19 05:46:27;;;;;;;15.98;9.32;;;9.90;99.90;;;;;;5025551;28;20447;-73
2023/05/19 05:48:53;;;;;;;13.38;9.48;;;10.00;99.90;;;;;;5021067;28;20049;-73
2023/05/19 05:51:21;;;;;;;14.75;9.00;;;10.10;99.90;;;;;;5026510;28;20051;-71
2023/05/19 05:53:52;;;;;;;13.55;8.68;;;10.10;99.90;;;;;;5022277;28;20037;-72
2023/05/19 05:56:18;;;;;;;16.08;9.00;;;10.20;99.90;;;;;;5020699;28;20119;-71
2023/05/19 05:58:44;;;;;;;13.60;9.15;;;10.20;99.90;;;;;;5031298;28;20609;-71
2023/05/19 06:01:10;;;;;;;12.82;8.80;;;10.30;99.90;;;;;;5028882;28;20072;-71
2023/05/19 06:03:40;;;;;;;18.02;8.40;;;10.30;99.90;;;;;;5028879;28;20119;-71
2023/05/19 06:06:07;;;;;;;13.63;8.70;;;10.30;99.90;;;;;;5026164;28;20084;-72
2023/05/19 06:08:33;;;;;;;13.00;8.57;;;10.40;99.90;;;;;;5029227;28;20104;-71
2023/05/19 06:10:59;;;;;;;13.65;8.38;;;10.50;99.90;;;;;;5029712;28;20650;-72
2023/05/19 06:13:25;;;;;;;15.77;8.65;;;10.60;99.90;;;;;;5027558;28;20099;-74
2023/05/19 06:15:54;;;;;;;13.75;8.80;;;10.60;99.90;;;;;;5022773;28;20061;-71
2023/05/19 06:18:19;;;;;;;12.50;7.90;;;10.70;99.90;;;;;;5019470;28;20099;-70
2023/05/19 06:20:45;;;;;;;13.13;8.60;;;10.80;99.90;;;;;;5021644;28;20037;-73
2023/05/19 06:23:11;;;;;;;13.05;7.60;;;10.90;99.90;;;;;;5019952;28;20108;-72
2023/05/19 06:25:36;;;;;;;15.00;7.40;;;10.90;99.90;;;;;;5022743;28;20037;-71
2023/05/19 06:28:02;;;;;;;16.98;7.75;;;11.00;99.90;;;;;;5029209;28;20060;-72
2023/05/19 06:30:28;;;;;;;13.70;6.80;;;11.10;99.90;;;;;;5027666;28;20127;-73
2023/05/19 06:32:54;;;;;;;10.98;7.07;;;11.20;99.90;;;;;;5035480;28;20052;-73
2023/05/19 06:35:20;;;;;;;16.02;7.18;;;11.20;99.90;;;;;;5031068;28;20049;-74
2023/05/19 06:37:45;;;;;;;11.07;6.80;;;11.30;99.90;;;;;;5030253;28;22007;-72
2023/05/19 06:40:11;;;;;;;14.52;7.03;;;11.40;99.90;;;;;;5024841;28;20041;-72
2023/05/19 06:42:37;;;;;;;12.65;6.65;;;11.50;99.90;;;;;;5027339;28;20083;-72
2023/05/19 06:45:03;;;;;;;10.13;6.50;;;11.50;99.90;;;;;;5022540;28;20041;-71
2023/05/19 06:47:29;;;;;;;11.85;6.60;;;11.60;99.90;;;;;;5026991;28;20048;-72
2023/05/19 06:49:55;;;;;;;12.20;6.78;;;11.70;99.90;;;;;;5029507;28;20052;-71
2023/05/19 06:52:21;;;;;;;12.98;6.38;;;11.80;99.90;;;;;;5025064;28;20044;-73
2023/05/19 06:54:48;;;;;;;11.40;5.85;;;11.90;99.90;;;;;;5024529;28;20060;-72
2023/05/19 06:57:14;;;;;;;12.23;6.47;;;12.00;99.90;;;;;;5027260;28;20053;-73
2023/05/19 06:59:42;;;;;;;13.25;6.25;;;12.10;99.90;;;;;;5015268;28;20045;-73
2023/05/19 07:02:08;;;;;;;10.35;6.28;;;12.20;99.90;;;;;;5024094;28;20064;-74
2023/05/19 07:04:35;;;;;;;12.32;5.65;;;12.20;99.90;;;;;;5038281;28;20049;-72
2023/05/19 07:07:00;;;;;;;9.17;5.90;;;12.30;99.90;;;;;;5031133;28;20048;-73
2023/05/19 07:09:26;;;;;;;14.63;6.35;;;12.30;99.90;;;;;;5024180;28;20311;-72
2023/05/19 07:11:52;;;;;;;10.65;6.20;;;12.40;99.90;;;;;;5026442;28;20935;-73
2023/05/19 07:14:19;;;;;;;11.65;5.97;;;12.50;99.90;;;;;;5029736;28;20088;-73
2023/05/19 07:16:45;;;;;;;15.98;5.78;;;12.60;99.90;;;;;;5029559;28;20153;-74
2023/05/19 07:19:11;;;;;;;11.70;6.03;;;12.60;99.90;;;;;;5027618;28;20547;-75
2023/05/19 07:21:36;;;;;;;10.98;5.40;;;12.70;99.90;;;;;;5017740;28;20080;-75
2023/05/19 07:24:02;;;;;;;10.40;5.22;;;12.70;99.90;;;;;;5015787;28;20298;-73
2023/05/19 07:26:28;;;;;;;12.48;5.53;;;12.80;99.90;;;;;;5024796;28;20052;-73
2023/05/19 07:28:53;;;;;;;9.55;4.85;;;12.80;99.90;;;;;;5017889;28;20052;-76
2023/05/19 07:31:19;;;;;;;11.45;5.15;;;12.90;99.90;;;;;;5026879;28;20255;-74
2023/05/19 07:33:45;;;;;;;12.48;5.28;;;12.90;99.90;;;;;;5028870;28;20044;-74
2023/05/19 07:36:10;;;;;;;9.63;5.40;;;13.00;99.90;;;;;;5022106;28;20570;-74
2023/05/19 07:38:36;;;;;;;9.65;4.90;;;13.10;99.90;;;;;;5017491;28;20421;-74
2023/05/19 07:41:02;;;;;;;12.13;4.80;;;13.20;99.90;;;;;;5025422;28;20087;-75
2023/05/19 07:43:28;;;;;;;10.75;4.53;;;13.30;99.90;;;;;;5026395;28;20045;-74
2023/05/19 07:45:55;;;;;;;12.15;5.38;;;13.30;99.90;;;;;;5016990;28;20060;-76
2023/05/19 07:48:23;;;;;;;12.17;5.00;;;13.40;99.90;;;;;;5029334;28;20056;-74
2023/05/19 07:50:49;;;;;;;8.15;4.72;;;13.40;99.90;;;;;;5025513;28;20055;-73
2023/05/19 07:53:15;;;;;;;8.13;4.40;;;13.50;99.90;;;;;;5016772;28;20496;-73
2023/05/19 07:55:41;;;;;;;11.57;4.57;;;13.50;99.90;;;;;;5030868;28;20572;-74
2023/05/19 07:58:06;;;;;;;9.60;4.22;;;13.60;99.90;;;;;;5023704;28;20051;-74
2023/05/19 08:00:32;;;;;;;9.80;4.40;;;13.60;99.90;;;;;;5017154;28;20588;-73
2023/05/19 08:02:58;;;;;;;10.45;4.03;;;13.70;99.90;;;;;;5028348;28;20524;-72
2023/05/19 08:05:26;;;;;;;11.95;5.03;;;13.80;99.90;;;;;;5022105;28;20052;-75
2023/05/19 08:07:52;;;;;;;10.45;4.25;;;13.90;99.90;;;;;;5017001;28;20507;-76
2023/05/19 08:10:21;;;;;;;9.30;4.45;;;13.90;99.90;;;;;;5024703;28;20056;-75
2023/05/19 08:12:47;;;;;;;7.90;3.17;;;14.10;99.90;;;;;;5021819;28;20049;-75
2023/05/19 08:15:13;;;;;;;10.90;4.00;;;14.20;99.90;;;;;;5029022;28;20049;-76
2023/05/19 08:17:38;;;;;;;8.60;3.83;;;14.20;99.90;;;;;;5033916;28;20492;-73
2023/05/19 08:20:08;;;;;;;10.15;3.63;;;14.30;99.90;;;;;;5029803;28;20041;-74
2023/05/19 08:22:35;;;;;;;11.60;3.90;;;14.30;99.90;;;;;;5026120;28;20049;-75
2023/05/19 08:25:02;;;;;;;10.88;3.47;;;14.30;99.90;;;;;;5028972;28;20554;-74
2023/05/19 08:27:28;;;;;;;9.52;3.55;;;14.40;99.90;;;;;;5023112;28;20034;-74
2023/05/19 08:29:54;;;;;;;7.82;3.35;;;14.50;99.90;;;;;;5028931;28;20048;-69
2023/05/19 08:32:20;;;;;;;8.77;3.15;;;14.60;99.90;;;;;;5030658;28;20056;-70
2023/05/19 08:34:46;;;;;;;9.07;3.03;;;14.70;99.90;;;;;;5025638;28;20370;-72
2023/05/19 08:37:11;;;;;;;11.80;3.47;;;14.80;99.90;;;;;;5026630;28;20107;-72
2023/05/19 08:39:37;;;;;;;19.33;4.25;;;14.90;99.90;;;;;;5027584;28;20163;-73
2023/05/19 08:42:03;;;;;;;16.45;3.60;;;14.90;99.90;;;;;;5018858;28;20049;-72
2023/05/19 08:44:30;;;;;;;20.35;4.13;;;15.00;99.90;;;;;;5023726;28;20540;-72
2023/05/19 08:46:59;;;;;;;9.63;3.13;;;15.10;99.90;;;;;;5023975;28;20063;-74
2023/05/19 08:49:29;;;;;;;9.70;3.35;;;15.20;99.90;;;;;;5025153;28;20060;-71
2023/05/19 08:52:20;;;;;;;8.18;2.90;;;15.20;99.90;;;;;;5017788;28;20064;-71
2023/05/19 08:54:53;;;;;;;31.73;4.10;;;15.20;99.90;;;;;;5024628;28;20487;-71
2023/05/19 08:57:20;;;;;;;13.98;3.65;;;15.30;99.90;;;;;;5022854;28;20957;-71
2023/05/19 08:59:47;;;;;;;90.95;7.90;;;15.40;99.90;;;;;;5026099;28;20627;-73
2023/05/19 09:02:13;;;;;;;11.85;3.22;;;15.50;99.90;;;;;;5024553;28;20055;-74
2023/05/19 09:04:40;;;;;;;7.90;3.20;;;15.50;99.90;;;;;;5020051;28;20634;-81
2023/05/19 09:07:08;;;;;;;9.30;3.00;;;15.60;99.20;;;;;;5021785;28;20539;-75
2023/05/19 09:09:33;;;;;;;10.45;2.83;;;15.60;98.30;;;;;;5031243;28;20140;-77
2023/05/19 09:11:59;;;;;;;10.10;2.58;;;15.70;98.90;;;;;;5032509;28;20049;-77
2023/05/19 09:14:25;;;;;;;9.57;2.65;;;15.80;99.00;;;;;;5025821;28;20578;-78
2023/05/19 09:16:51;;;;;;;7.00;3.05;;;15.90;98.20;;;;;;5031281;28;20054;-76
2023/05/19 09:19:19;;;;;;;85.88;7.18;;;16.00;97.60;;;;;;5028407;28;20048;-75
2023/05/19 09:21:45;;;;;;;19.45;3.00;;;16.10;97.60;;;;;;5017825;28;20056;-73
2023/05/19 09:24:10;;;;;;;25.92;3.72;;;16.20;97.70;;;;;;5030592;28;20041;-75
2023/05/19 09:26:41;;;;;;;11.55;2.65;;;16.30;96.80;;;;;;5020672;28;20029;-75
2023/05/19 09:29:17;;;;;;;7.93;2.65;;;16.40;96.20;;;;;;5022116;28;20526;-77
2023/05/19 09:31:50;;;;;;;11.13;3.05;;;16.40;96.50;;;;;;5023561;28;20044;-76
2023/05/19 09:34:16;;;;;;;6.88;2.55;;;16.50;95.40;;;;;;5026345;28;20552;-74
2023/05/19 09:36:41;;;;;;;6.32;2.90;;;16.60;94.50;;;;;;5027059;28;20051;-72
2023/05/19 09:39:17;;;;;;;9.15;2.63;;;16.50;92.50;;;;;;5023556;28;20068;-74
2023/05/19 09:41:43;;;;;;;9.65;2.88;;;16.50;92.20;;;;;;5034119;28;20053;-75
2023/05/19 09:44:22;;;;;;;5.30;2.40;;;16.50;92.10;;;;;;5023201;28;20103;-74
2023/05/19 09:46:52;;;;;;;6.22;2.47;;;16.50;91.20;;;;;;5032265;28;20052;-73
2023/05/19 09:49:22;;;;;;;7.70;2.10;;;16.40;90.90;;;;;;5033280;28;20049;-74
2023/05/19 09:51:50;;;;;;;8.75;2.60;;;16.50;92.30;;;;;;5026096;28;20500;-71
2023/05/19 09:54:15;;;;;;;;;;;16.50;92.00;;;;;;5022666;28;20162;-72
2023/05/19 09:56:41;;;;;;;6.35;2.08;;;16.60;92.30;;;;;;5031676;28;20389;-72
2023/05/19 09:59:07;;;;;;;9.90;2.47;;;16.70;92.30;;;;;;5028869;28;20516;-71
2023/05/19 10:01:35;;;;;;;7.90;2.70;;;16.80;91.90;;;;;;5029903;28;20063;-72
2023/05/19 10:04:02;;;;;;;6.90;2.22;;;16.80;90.40;;;;;;5035031;28;20669;-72
2023/05/19 10:06:28;;;;;;;6.95;2.50;;;16.80;91.10;;;;;;5034437;28;20043;-75
2023/05/19 10:08:55;;;;;;;9.05;2.60;;;16.80;90.90;;;;;;5024890;28;20051;-78
2023/05/19 10:11:22;;;;;;;6.47;2.22;;;16.80;90.80;;;;;;5032440;28;20037;-73
2023/05/19 10:13:50;;;;;;;9.25;2.50;;;16.90;90.90;;;;;;5023444;28;20475;-76
2023/05/19 10:16:17;;;;;;;6.25;2.70;;;17.00;90.80;;;;;;5027806;28;20101;-76
2023/05/19 10:18:43;;;;;;;6.97;2.20;;;17.00;90.10;;;;;;5035606;28;20056;-76
2023/05/19 10:21:11;;;;;;;8.00;2.50;;;17.00;89.70;;;;;;5026104;28;20051;-76
2023/05/19 10:23:37;;;;;;;9.05;2.55;;;17.10;89.00;;;;;;5025776;28;20045;-79
2023/05/19 10:26:05;;;;;;;7.38;2.22;;;17.10;89.90;;;;;;5035414;28;20110;-88
2023/05/19 10:28:36;;;;;;;6.30;2.35;;;17.20;90.20;;;;;;5035129;28;20049;-85
2023/05/19 10:31:05;;;;;;;6.60;2.67;;;17.30;88.10;;;;;;5019861;28;20056;-82
2023/05/19 10:33:51;;;;;;;6.10;2.40;;;17.20;85.60;;;;;;5034936;28;20136;-82
2023/05/19 10:36:40;;;;;;;8.13;2.60;;;17.10;86.20;;;;;;5019944;28;20061;-85
2023/05/19 10:39:35;;;;;;;8.27;2.55;;;17.20;86.20;;;;;;5036448;28;20057;-83
2023/05/19 10:42:30;;;;;;;7.43;2.70;;;17.20;86.90;;;;;;5027425;28;20423;-81
2023/05/19 10:45:23;;;;;;;5.45;2.78;;;17.20;87.40;;;;;;5030838;28;20884;-82
2023/05/19 10:47:53;;;;;;;10.57;2.40;;;17.20;85.30;;;;;;5034028;28;20431;-78
2023/05/19 10:50:19;;;;;;;9.43;2.72;;;17.30;86.40;;;;;;5039052;28;20048;-76
2023/05/19 10:52:54;;;;;;;8.00;2.40;;;17.40;88.10;;;;;;5021919;28;20074;-74
2023/05/19 10:55:48;;;;;;;8.80;2.50;;;17.60;88.60;;;;;;5034495;28;20095;-74
2023/05/19 10:58:14;;;;;;;8.80;2.50;;;17.80;88.70;;;;;;5025457;28;20053;-76
2023/05/19 11:00:40;;;;;;;7.65;2.40;;;17.90;86.70;;;;;;5024115;28;20060;-76
2023/05/19 11:03:17;;;;;;;5.75;2.30;;;17.90;86.20;;;;;;5032621;28;20056;-69
2023/05/19 11:05:45;;;;;;;6.32;2.10;;;18.10;85.00;;;;;;5023391;28;20415;-68
2023/05/19 11:08:11;;;;;;;8.93;2.60;;;18.10;82.10;;;;;;5022812;28;20041;-69
2023/05/19 11:10:38;;;;;;;5.82;2.28;;;18.20;82.10;;;;;;5021026;28;20053;-78
2023/05/19 11:13:04;;;;;;;9.07;2.60;;;18.30;83.00;;;;;;5018161;28;20045;-72
2023/05/19 11:15:37;;;;;;;7.40;2.35;;;18.40;83.60;;;;;;5025811;28;20099;-72
2023/05/19 11:18:03;;;;;;;8.25;2.70;;;18.40;81.90;;;;;;5026288;28;20065;-75
2023/05/19 11:20:33;;;;;;;9.63;2.95;;;18.30;79.30;;;;;;5025413;28;20084;-73
2023/05/19 11:23:08;;;;;;;7.63;2.40;;;18.20;79.80;;;;;;5034508;28;20049;-73
2023/05/19 11:25:50;;;;;;;7.82;2.63;;;18.20;80.70;;;;;;5028365;28;20051;-73
2023/05/19 11:28:21;;;;;;;8.23;2.72;;;18.20;80.90;;;;;;5025567;28;20504;-71
2023/05/19 11:30:51;;;;;;;7.22;2.60;;;18.20;81.70;;;;;;5023227;28;20132;-71
2023/05/19 11:33:18;;;;;;;8.55;2.63;;;18.40;83.20;;;;;;5026570;28;20406;-72
2023/05/19 11:35:45;;;;;;;7.45;2.78;;;18.50;81.30;;;;;;5026077;28;20072;-73
2023/05/19 11:38:13;;;;;;;6.93;2.50;;;18.60;80.70;;;;;;5028738;28;20114;-73
2023/05/19 11:40:40;;;;;;;;;;;18.60;79.90;;;;;;5032665;28;20099;-73
2023/05/19 11:43:06;;;;;;;8.85;2.53;;;18.70;80.80;;;;;;5028389;28;19939;-73
2023/05/19 11:45:33;;;;;;;8.35;3.17;;;18.70;78.60;;;;;;5028384;28;20049;-75
2023/05/19 11:47:59;;;;;;;8.55;2.75;;;18.80;79.60;;;;;;5017839;28;20057;-76
2023/05/19 11:50:25;;;;;;;6.55;2.90;;;19.00;78.00;;;;;;5020024;28;20049;-72
2023/05/19 11:52:51;;;;;;;10.63;2.80;;;19.10;78.70;;;;;;5028826;28;20055;-73
2023/05/19 11:55:20;;;;;;;10.38;3.05;;;19.30;79.00;;;;;;5021417;28;20053;-75
2023/05/19 11:58:01;;;;;;;10.77;3.08;;;19.50;77.70;;;;;;5019429;28;20053;-74
2023/05/19 12:00:29;;;;;;;5.95;2.58;;;19.60;77.80;;;;;;5029783;28;21240;-73
2023/05/19 12:02:55;;;;;;;6.85;2.55;;;19.70;76.70;;;;;;5031618;28;20135;-74
2023/05/19 12:05:23;;;;;;;8.32;2.70;;;19.70;76.00;;;;;;5032831;28;20040;-74
2023/05/19 12:07:50;;;;;;;9.13;2.65;;;19.70;76.50;;;;;;5020726;28;20041;-73
2023/05/19 12:10:18;;;;;;;6.03;2.63;;;19.80;74.80;;;;;;5028460;28;20054;-74
2023/05/19 12:12:44;;;;;;;6.88;2.42;;;19.90;75.60;;;;;;5022634;28;20049;-74
2023/05/19 12:15:10;;;;;;;8.57;2.33;;;20.00;75.80;;;;;;5027441;28;20091;-74
2023/05/19 12:17:36;;;;;;;6.43;2.60;;;20.00;75.00;;;;;;5033854;28;20041;-74
2023/05/19 12:20:03;;;;;;;8.35;2.83;;;20.10;74.30;;;;;;5026375;28;20072;-75
2023/05/19 12:22:29;;;;;;;;;;;20.20;71.40;;;;;;5027015;28;20048;-75
2023/05/19 12:24:55;;;;;;;8.33;3.20;;;20.20;73.50;;;;;;5026885;28;20749;-74
2023/05/19 12:27:27;;;;;;;7.07;2.60;;;20.40;71.50;;;;;;5024866;28;20042;-74
2023/05/19 12:29:54;;;;;;;7.13;2.50;;;20.40;70.70;;;;;;5025166;28;20045;-75
2023/05/19 12:32:24;;;;;;;;;;;20.50;70.50;;;;;;5023419;28;20052;-74
2023/05/19 12:34:50;;;;;;;7.25;2.53;;;20.50;69.70;;;;;;5016671;28;20384;-73
2023/05/19 12:37:16;;;;;;;7.88;2.60;;;20.50;68.90;;;;;;5018707;28;20045;-73
2023/05/19 12:39:42;;;;;;;7.97;2.45;;;20.50;69.40;;;;;;5020035;28;20063;-75
2023/05/19 12:42:09;;;;;;;6.50;2.30;;;20.60;69.20;;;;;;5029519;28;20044;-75
2023/05/19 12:44:47;;;;;;;5.65;2.33;;;20.60;68.80;;;;;;5023187;28;20040;-75
2023/05/19 12:47:14;;;;;;;14.02;3.80;;;20.60;67.50;;;;;;5029183;28;20041;-74